createdAt,value
2018-08-13T00:01:04.804Z,1.50
2018-08-13T00:03:33.167Z,1.30
2018-08-13T00:06:01.550Z,1.47
2018-08-13T00:08:29.973Z,1.50
2018-08-13T00:10:58.360Z,1.40
2018-08-13T00:13:26.749Z,1.70
2018-08-13T00:15:55.163Z,1.40
2018-08-13T00:18:23.538Z,1.40
2018-08-13T00:20:51.913Z,1.43
2018-08-13T00:23:20.236Z,1.73
2018-08-13T00:25:48.616Z,1.87
2018-08-13T00:28:17.003Z,1.47
2018-08-13T00:30:45.403Z,1.97
2018-08-13T00:33:13.844Z,1.57
2018-08-13T00:35:42.270Z,1.60
2018-08-13T00:38:10.675Z,1.40
2018-08-13T00:40:39.027Z,1.60
2018-08-13T00:43:07.612Z,1.37
2018-08-13T00:45:36.043Z,1.37
2018-08-13T00:48:04.561Z,1.30
2018-08-13T00:50:32.928Z,1.27
2018-08-13T00:53:01.316Z,1.50
2018-08-13T00:55:29.698Z,1.23
2018-08-13T00:57:58.058Z,1.40
2018-08-13T01:00:26.495Z,1.23
2018-08-13T01:02:54.882Z,1.27
2018-08-13T01:05:23.362Z,1.30
2018-08-13T01:07:51.703Z,1.13
2018-08-13T01:10:21.450Z,1.27
2018-08-13T01:12:49.883Z,1.13
2018-08-13T01:15:19.232Z,1.20
2018-08-13T01:17:48.944Z,1.20
2018-08-13T01:20:18.243Z,1.47
2018-08-13T01:22:46.702Z,1.20
2018-08-13T01:25:16.417Z,1.20
2018-08-13T01:27:45.143Z,1.13
2018-08-13T01:30:15.105Z,1.50
2018-08-13T01:32:43.556Z,1.60
2018-08-13T01:35:11.947Z,1.73
2018-08-13T01:37:40.347Z,1.50
2018-08-13T01:40:10.060Z,1.40
2018-08-13T01:42:38.600Z,1.20
2018-08-13T01:45:08.451Z,1.10
2018-08-13T01:47:36.853Z,1.23
2018-08-13T01:50:07.089Z,1.00
2018-08-13T01:52:35.427Z,1.30
2018-08-13T01:55:03.859Z,1.53
2018-08-13T01:57:32.264Z,1.00
2018-08-13T02:00:00.661Z,1.30
2018-08-13T02:02:29.097Z,1.00
2018-08-13T02:04:57.494Z,1.27
2018-08-13T02:07:25.890Z,1.20
2018-08-13T02:09:54.251Z,1.00
2018-08-13T02:12:22.596Z,1.37
2018-08-13T02:14:51.686Z,0.97
2018-08-13T02:17:20.147Z,1.10
2018-08-13T02:19:48.510Z,1.23
2018-08-13T02:22:16.874Z,1.53
2018-08-13T02:24:45.282Z,1.40
2018-08-13T02:27:13.683Z,1.37
2018-08-13T02:29:42.112Z,1.30
2018-08-13T02:32:10.510Z,1.57
2018-08-13T02:34:38.941Z,1.40
2018-08-13T02:37:07.371Z,1.10
2018-08-13T02:39:35.714Z,1.30
2018-08-13T02:42:04.100Z,1.20
2018-08-13T02:44:32.491Z,1.30
2018-08-13T02:47:00.808Z,1.33
2018-08-13T02:49:29.197Z,1.20
2018-08-13T02:51:57.608Z,1.00
2018-08-13T02:54:25.977Z,1.20
2018-08-13T02:56:54.309Z,1.47
2018-08-13T02:59:22.766Z,1.37
2018-08-13T03:01:51.147Z,1.27
2018-08-13T03:04:19.505Z,1.40
2018-08-13T03:06:47.992Z,1.70
2018-08-13T03:09:16.366Z,1.17
2018-08-13T03:11:44.772Z,1.13
2018-08-13T03:14:13.216Z,1.40
2018-08-13T03:16:41.596Z,1.30
2018-08-13T03:19:10.025Z,1.37
2018-08-13T03:21:38.453Z,1.53
2018-08-13T03:24:06.917Z,1.37
2018-08-13T03:26:35.275Z,1.30
2018-08-13T03:29:03.737Z,1.40
2018-08-13T03:31:32.099Z,1.60
2018-08-13T03:34:00.467Z,1.40
2018-08-13T03:36:28.814Z,1.40
2018-08-13T03:38:57.213Z,1.30
2018-08-13T03:41:25.602Z,1.47
2018-08-13T03:43:54.000Z,1.20
2018-08-13T03:46:22.397Z,1.40
2018-08-13T03:48:51.068Z,1.70
2018-08-13T03:51:19.455Z,1.47
2018-08-13T03:53:47.865Z,1.53
2018-08-13T03:56:16.147Z,1.50
2018-08-13T03:58:44.515Z,1.80
2018-08-13T04:01:12.865Z,1.60
2018-08-13T04:03:41.240Z,1.47
2018-08-13T04:06:09.583Z,1.23
2018-08-13T04:08:38.224Z,1.50
2018-08-13T04:11:06.794Z,1.80
2018-08-13T04:13:35.255Z,1.70
2018-08-13T04:16:03.736Z,1.50
2018-08-13T04:18:32.087Z,1.80
2018-08-13T04:21:00.551Z,1.57
2018-08-13T04:23:28.905Z,1.40
2018-08-13T04:25:57.327Z,1.60
2018-08-13T04:28:25.698Z,1.50
2018-08-13T04:30:54.124Z,1.30
2018-08-13T04:33:22.521Z,1.90
2018-08-13T04:35:50.918Z,2.07
2018-08-13T04:38:19.584Z,1.50
2018-08-13T04:40:48.028Z,1.93
2018-08-13T04:43:16.395Z,1.53
2018-08-13T04:45:44.840Z,1.63
2018-08-13T04:48:13.252Z,1.93
2018-08-13T04:50:41.624Z,1.57
2018-08-13T04:53:10.139Z,1.73
2018-08-13T04:55:38.544Z,1.70
2018-08-13T04:58:07.052Z,1.70
2018-08-13T05:00:35.448Z,1.53
2018-08-13T05:03:03.970Z,1.80
2018-08-13T05:05:32.400Z,1.83
2018-08-13T05:08:00.746Z,2.50
2018-08-13T05:10:29.119Z,1.57
2018-08-13T05:12:57.670Z,1.33
2018-08-13T05:15:26.020Z,1.60
2018-08-13T05:17:54.358Z,1.33
2018-08-13T05:20:22.802Z,1.40
2018-08-13T05:22:51.200Z,1.50
2018-08-13T05:25:19.553Z,1.83
2018-08-13T05:27:47.981Z,1.60
2018-08-13T05:30:16.352Z,1.80
2018-08-13T05:32:44.743Z,1.73
2018-08-13T05:35:13.160Z,1.50
2018-08-13T05:37:41.562Z,1.70
2018-08-13T05:40:10.829Z,1.60
2018-08-13T05:42:39.675Z,1.47
2018-08-13T05:45:09.480Z,1.50
2018-08-13T05:47:37.951Z,1.53
2018-08-13T05:50:07.890Z,1.23
2018-08-13T05:52:36.319Z,1.63
2018-08-13T05:55:05.047Z,1.60
2018-08-13T05:57:33.470Z,1.57
2018-08-13T06:00:01.984Z,1.57
2018-08-13T06:02:30.423Z,1.40
2018-08-13T06:04:58.852Z,1.70
2018-08-13T06:07:27.343Z,1.40
2018-08-13T06:09:55.729Z,1.47
2018-08-13T06:12:24.145Z,1.23
2018-08-13T06:14:52.473Z,1.37
2018-08-13T06:17:21.517Z,1.40
2018-08-13T06:19:49.921Z,1.67
2018-08-13T06:22:18.309Z,1.30
2018-08-13T06:24:46.743Z,1.77
2018-08-13T06:27:15.160Z,1.87
2018-08-13T06:29:43.798Z,1.77
2018-08-13T06:32:12.219Z,1.33
2018-08-13T06:34:40.647Z,1.70
2018-08-13T06:37:09.145Z,1.50
2018-08-13T06:39:37.490Z,1.40
2018-08-13T06:42:05.848Z,1.47
2018-08-13T06:44:34.238Z,1.57
2018-08-13T06:47:02.616Z,1.33
2018-08-13T06:49:31.097Z,1.43
2018-08-13T06:51:59.642Z,1.23
2018-08-13T06:54:28.025Z,1.20
2018-08-13T06:56:56.442Z,1.53
2018-08-13T06:59:24.837Z,1.27
2018-08-13T07:01:53.415Z,1.10
2018-08-13T07:04:21.879Z,1.10
2018-08-13T07:06:50.569Z,1.63
2018-08-13T07:09:18.966Z,1.17
2018-08-13T07:11:47.357Z,1.33
2018-08-13T07:14:16.160Z,1.30
2018-08-13T07:16:44.554Z,1.23
2018-08-13T07:19:12.916Z,1.10
2018-08-13T07:21:41.257Z,1.57
2018-08-13T07:24:09.660Z,1.12
2018-08-13T07:26:38.086Z,1.40
2018-08-13T07:29:06.571Z,1.37
2018-08-13T07:31:34.977Z,1.27
2018-08-13T07:34:04.433Z,1.30
2018-08-13T07:36:32.879Z,1.10
2018-08-13T07:39:01.334Z,1.22
2018-08-13T07:41:30.101Z,1.30
2018-08-13T07:43:58.507Z,1.10
2018-08-13T07:46:26.937Z,1.20
2018-08-13T07:48:55.569Z,1.50
2018-08-13T07:51:24.235Z,1.30
2018-08-13T07:53:52.667Z,1.42
2018-08-13T07:56:21.130Z,1.35
2018-08-13T07:58:49.491Z,1.20
2018-08-13T08:01:18.632Z,1.40
2018-08-13T08:03:47.069Z,1.30
2018-08-13T08:06:15.727Z,1.20
2018-08-13T08:08:44.154Z,1.00
2018-08-13T08:11:12.599Z,1.37
2018-08-13T08:13:41.086Z,1.52
2018-08-13T08:16:09.441Z,1.40
2018-08-13T08:18:37.849Z,1.30
2018-08-13T08:21:06.428Z,1.40
2018-08-13T08:23:34.880Z,1.40
2018-08-13T08:26:03.310Z,1.40
2018-08-13T08:28:31.731Z,1.57
2018-08-13T08:31:00.234Z,1.52
2018-08-13T08:33:28.697Z,1.30
2018-08-13T08:35:57.082Z,1.55
2018-08-13T08:38:25.622Z,1.50
2018-08-13T08:40:54.621Z,1.42
2018-08-13T08:43:23.002Z,1.22
2018-08-13T08:45:51.440Z,1.35
2018-08-13T08:48:19.848Z,1.25
2018-08-13T08:50:48.544Z,1.10
2018-08-13T08:53:16.924Z,1.10
2018-08-13T08:55:45.368Z,1.45
2018-08-13T08:58:13.792Z,1.22
2018-08-13T09:00:42.234Z,1.35
2018-08-13T09:03:10.697Z,1.77
2018-08-13T09:05:39.127Z,1.55
2018-08-13T09:08:07.562Z,1.87
2018-08-13T09:10:36.026Z,1.47
2018-08-13T09:13:04.573Z,1.55
2018-08-13T09:15:32.930Z,1.30
2018-08-13T09:18:12.614Z,1.45
2018-08-13T09:20:52.238Z,1.50
2018-08-13T09:23:31.900Z,1.25
2018-08-13T09:26:11.569Z,1.72
2018-08-13T09:28:51.189Z,1.55
2018-08-13T09:31:30.767Z,1.45
2018-08-13T09:34:13.788Z,1.25
2018-08-13T09:36:42.296Z,1.42
2018-08-13T09:39:11.332Z,1.62
2018-08-13T09:41:39.710Z,1.80
2018-08-13T09:44:08.190Z,1.90
2018-08-13T09:46:36.520Z,1.60
2018-08-13T09:49:05.190Z,1.77
2018-08-13T09:51:33.636Z,1.70
2018-08-13T09:54:02.091Z,1.55
2018-08-13T09:56:30.480Z,1.40
2018-08-13T09:58:58.862Z,1.55
2018-08-13T10:01:27.260Z,1.55
2018-08-13T10:03:55.759Z,1.85
2018-08-13T10:06:24.128Z,1.85
2018-08-13T10:08:52.517Z,1.40
2018-08-13T10:11:20.932Z,1.40
2018-08-13T10:13:49.324Z,1.57
2018-08-13T10:16:17.658Z,1.62
2018-08-13T10:18:46.665Z,1.50
2018-08-13T10:21:15.096Z,1.50
2018-08-13T10:23:43.536Z,1.80
2018-08-13T10:26:11.960Z,1.92
2018-08-13T10:28:40.336Z,1.70
2018-08-13T10:31:08.730Z,1.70
2018-08-13T10:33:37.142Z,1.62
2018-08-13T10:36:05.615Z,2.02
2018-08-13T10:38:34.127Z,1.50
2018-08-13T10:41:02.536Z,1.80
2018-08-13T10:43:31.164Z,1.60
2018-08-13T10:45:59.561Z,1.65
2018-08-13T10:48:28.038Z,1.77
2018-08-13T10:50:56.439Z,1.82
2018-08-13T10:53:24.818Z,1.50
2018-08-13T10:55:53.280Z,1.62
2018-08-13T10:58:21.739Z,1.98
2018-08-13T11:00:50.171Z,2.02
2018-08-13T11:03:18.635Z,1.47
2018-08-13T11:05:47.166Z,2.00
2018-08-13T11:08:15.599Z,2.08
2018-08-13T11:10:43.966Z,2.58
2018-08-13T11:13:12.356Z,2.20
2018-08-13T11:15:40.742Z,2.87
2018-08-13T11:18:09.173Z,2.42
2018-08-13T11:20:37.518Z,2.40
2018-08-13T11:23:05.947Z,2.10
2018-08-13T11:25:34.334Z,2.20
2018-08-13T11:28:02.784Z,2.17
2018-08-13T11:30:31.226Z,2.03
2018-08-13T11:32:59.665Z,1.87
2018-08-13T11:35:28.103Z,2.00
2018-08-13T11:37:56.516Z,1.70
2018-08-13T11:40:24.895Z,1.90
2018-08-13T11:42:53.275Z,2.17
2018-08-13T11:45:21.690Z,2.43
2018-08-13T11:47:50.063Z,2.67
2018-08-13T11:50:19.725Z,2.70
2018-08-13T11:52:49.255Z,2.30
2018-08-13T11:55:18.236Z,2.40
2018-08-13T11:57:47.448Z,1.77
2018-08-13T12:00:15.968Z,1.97
2018-08-13T12:02:44.535Z,2.10
2018-08-13T12:05:14.448Z,1.33
2018-08-13T12:07:43.573Z,1.70
2018-08-13T12:10:12.820Z,1.80
2018-08-13T12:12:42.140Z,1.57
2018-08-13T12:15:11.812Z,1.83
2018-08-13T12:17:40.943Z,1.57
2018-08-13T12:20:12.392Z,1.27
2018-08-13T12:22:41.023Z,1.50
2018-08-13T12:25:09.913Z,1.50
2018-08-13T12:27:38.354Z,1.47
2018-08-13T12:30:09.162Z,1.50
2018-08-13T12:32:37.638Z,1.20
2018-08-13T12:35:06.326Z,1.20
2018-08-13T12:37:34.768Z,1.53
2018-08-13T12:40:03.184Z,1.10
2018-08-13T12:42:31.597Z,0.93
2018-08-13T12:45:00.023Z,1.10
2018-08-13T12:47:28.484Z,1.10
2018-08-13T12:49:56.874Z,1.37
2018-08-13T12:52:25.286Z,1.17
2018-08-13T12:54:53.691Z,1.33
2018-08-13T12:57:22.101Z,1.20
2018-08-13T12:59:50.511Z,1.87
2018-08-13T13:02:18.934Z,1.10
2018-08-13T13:04:47.351Z,1.30
2018-08-13T13:07:15.822Z,1.43
2018-08-13T13:09:44.311Z,1.73
2018-08-13T13:12:12.786Z,1.50
2018-08-13T13:14:41.256Z,1.70
2018-08-13T13:17:09.677Z,1.90
2018-08-13T13:19:38.066Z,2.10
2018-08-13T13:22:06.455Z,1.83
2018-08-13T13:24:34.818Z,1.80
2018-08-13T13:27:03.238Z,1.87
2018-08-13T13:29:31.723Z,1.93
2018-08-13T13:32:00.111Z,1.87
2018-08-13T13:34:28.504Z,1.70
2018-08-13T13:36:56.998Z,1.77
2018-08-13T13:39:25.450Z,1.60
2018-08-13T13:41:53.900Z,1.40
2018-08-13T13:44:22.431Z,1.43
2018-08-13T13:46:50.788Z,1.20
2018-08-13T13:49:19.215Z,1.53
2018-08-13T13:51:47.656Z,1.47
2018-08-13T13:54:16.088Z,1.30
2018-08-13T13:56:44.570Z,1.47
2018-08-13T13:59:13.035Z,1.47
2018-08-13T14:01:41.574Z,1.17
2018-08-13T14:04:10.007Z,1.20
2018-08-13T14:06:38.439Z,1.60
2018-08-13T14:09:09.118Z,1.10
2018-08-13T14:11:38.178Z,1.23
2018-08-13T14:14:07.567Z,1.50
2018-08-13T14:16:36.032Z,1.00
2018-08-13T14:19:04.742Z,1.07
2018-08-13T14:21:33.198Z,1.00
2018-08-13T14:24:01.620Z,1.00
2018-08-13T14:26:30.065Z,1.37
2018-08-13T14:28:58.566Z,1.43
2018-08-13T14:31:29.193Z,1.07
2018-08-13T14:33:57.630Z,1.03
2018-08-13T14:36:26.104Z,0.90
2018-08-13T14:38:58.328Z,1.03
2018-08-13T14:41:26.740Z,1.10
2018-08-13T14:43:55.814Z,1.20
2018-08-13T14:46:24.192Z,0.93
2018-08-13T14:48:52.855Z,1.10
2018-08-13T14:51:21.498Z,1.00
2018-08-13T14:53:49.911Z,1.00
2018-08-13T14:56:19.254Z,1.20
2018-08-13T14:58:48.129Z,1.20
2018-08-13T15:01:16.514Z,1.10
2018-08-13T15:03:44.890Z,1.45
2018-08-13T15:06:13.284Z,1.85
2018-08-13T15:08:41.683Z,1.55
2018-08-13T15:11:10.139Z,1.60
2018-08-13T15:13:38.518Z,1.22
2018-08-13T15:16:06.938Z,1.70
2018-08-13T15:18:37.298Z,1.70
2018-08-13T15:21:09.522Z,1.60
2018-08-13T15:23:39.389Z,1.60
2018-08-13T15:26:09.599Z,1.50
2018-08-13T15:28:39.515Z,1.40
2018-08-13T15:31:14.839Z,1.63
2018-08-13T15:33:44.216Z,1.53
2018-08-13T15:36:12.644Z,1.43
2018-08-13T15:38:41.111Z,1.40
2018-08-13T15:41:09.483Z,1.40
2018-08-13T15:43:37.900Z,1.60
2018-08-13T15:46:06.324Z,1.57
2018-08-13T15:48:34.713Z,1.30
2018-08-13T15:51:03.058Z,1.70
2018-08-13T15:53:32.929Z,1.80
2018-08-13T15:56:01.454Z,1.40
2018-08-13T15:58:32.360Z,1.80
2018-08-13T16:01:00.762Z,1.37
2018-08-13T16:03:29.292Z,2.00
2018-08-13T16:05:58.976Z,1.97
2018-08-13T16:08:27.446Z,1.90
2018-08-13T16:10:56.061Z,1.80
2018-08-13T16:13:24.831Z,2.10
2018-08-13T16:15:55.399Z,2.27
2018-08-13T16:18:23.797Z,2.30
2018-08-13T16:20:52.367Z,2.17
2018-08-13T16:23:22.801Z,2.10
2018-08-13T16:25:51.282Z,2.27
2018-08-13T16:28:20.070Z,2.23
2018-08-13T16:30:48.479Z,2.47
2018-08-13T16:33:17.919Z,3.03
2018-08-13T16:35:49.926Z,2.80
2018-08-13T16:38:18.472Z,2.60
2018-08-13T16:40:47.024Z,2.90
2018-08-13T16:43:15.400Z,2.67
2018-08-13T16:45:43.803Z,3.27
2018-08-13T16:48:12.274Z,3.23
2018-08-13T16:50:40.672Z,2.87
2018-08-13T16:53:09.730Z,3.10
2018-08-13T16:55:38.265Z,3.00
2018-08-13T16:58:06.996Z,3.00
2018-08-13T17:00:35.375Z,3.23
2018-08-13T17:03:04.514Z,3.50
2018-08-13T17:05:34.765Z,3.20
2018-08-13T17:08:03.344Z,3.47
2018-08-13T17:10:32.311Z,3.43
2018-08-13T17:13:01.212Z,3.00
2018-08-13T17:15:31.320Z,3.37
2018-08-13T17:18:01.986Z,3.30
2018-08-13T17:20:59.256Z,3.47
2018-08-13T17:23:27.729Z,3.77
2018-08-13T17:25:56.116Z,3.77
2018-08-13T17:28:24.603Z,4.10
2018-08-13T17:30:53.058Z,3.40
2018-08-13T17:33:21.613Z,4.00
2018-08-13T17:35:50.124Z,3.20
2018-08-13T17:38:18.602Z,3.30
2018-08-13T17:40:46.982Z,3.00
2018-08-13T17:43:15.639Z,3.63
2018-08-13T17:45:43.962Z,2.97
2018-08-13T17:48:12.507Z,3.33
2018-08-13T17:50:40.987Z,3.40
2018-08-13T17:53:10.406Z,2.97
2018-08-13T17:55:38.894Z,3.27
2018-08-13T17:58:07.339Z,3.20
2018-08-13T18:00:35.858Z,3.03
2018-08-13T18:03:04.338Z,3.17
2018-08-13T18:05:32.780Z,2.70
2018-08-13T18:08:01.166Z,2.93
2018-08-13T18:10:31.647Z,3.13
2018-08-13T18:13:01.604Z,2.70
2018-08-13T18:15:30.293Z,3.20
2018-08-13T18:17:58.827Z,3.07
2018-08-13T18:20:27.293Z,3.30
2018-08-13T18:22:55.707Z,3.07
2018-08-13T18:25:24.194Z,3.20
2018-08-13T18:27:53.121Z,2.90
2018-08-13T18:30:25.660Z,3.23
2018-08-13T18:32:54.465Z,3.17
2018-08-13T18:35:23.088Z,3.00
2018-08-13T18:37:54.748Z,3.33
2018-08-13T18:40:27.239Z,3.20
2018-08-13T18:42:55.651Z,3.20
2018-08-13T18:45:24.369Z,3.03
2018-08-13T18:47:52.899Z,3.00
2018-08-13T18:50:22.214Z,3.40
2018-08-13T18:52:50.876Z,3.50
2018-08-13T18:55:20.737Z,3.23
2018-08-13T18:57:49.531Z,3.47
2018-08-13T19:00:24.412Z,3.00
2018-08-13T19:02:53.117Z,3.17
2018-08-13T19:05:22.253Z,3.93
2018-08-13T19:07:51.123Z,3.13
2018-08-13T19:10:20.380Z,3.00
2018-08-13T19:12:48.812Z,3.30
2018-08-13T19:15:19.353Z,3.50
2018-08-13T19:17:48.062Z,3.47
2018-08-13T19:20:16.601Z,3.20
2018-08-13T19:22:45.483Z,3.17
2018-08-13T19:25:19.376Z,3.03
2018-08-13T19:27:47.979Z,3.20
2018-08-13T19:33:20.515Z,3.27
2018-08-13T19:35:49.206Z,2.80
2018-08-13T19:38:18.424Z,2.97
2018-08-13T19:40:46.856Z,2.53
2018-08-13T19:43:15.226Z,2.70
2018-08-13T19:45:43.639Z,3.07
2018-08-13T19:48:12.058Z,2.50
2018-08-13T19:50:40.524Z,2.43
2018-08-13T19:53:08.919Z,3.07
2018-08-13T19:55:37.407Z,2.70
2018-08-13T19:58:05.855Z,2.33
2018-08-13T20:00:34.231Z,2.27
2018-08-13T20:03:02.624Z,2.37
2018-08-13T20:05:31.082Z,2.43
2018-08-13T20:07:59.568Z,2.57
2018-08-13T20:10:28.051Z,2.53
2018-08-13T20:12:56.438Z,3.37
2018-08-13T20:15:24.852Z,2.87
2018-08-13T20:17:53.444Z,3.60
2018-08-13T20:20:22.024Z,3.33
2018-08-13T20:22:50.913Z,4.17
2018-08-13T20:25:20.321Z,4.10
2018-08-13T20:27:49.489Z,4.27
2018-08-13T20:30:19.983Z,4.20
2018-08-13T20:32:49.533Z,4.50
2018-08-13T20:35:18.299Z,5.37
2018-08-13T20:37:46.753Z,4.50
2018-08-13T20:40:16.883Z,4.50
2018-08-13T20:42:46.119Z,4.60
2018-08-13T20:45:16.334Z,4.67
2018-08-13T20:47:45.107Z,4.40
2018-08-13T20:50:15.191Z,4.17
2018-08-13T20:52:44.009Z,4.23
2018-08-13T20:55:28.166Z,3.67
2018-08-13T20:57:56.624Z,3.40
2018-08-13T21:00:26.759Z,4.13
2018-08-13T21:02:55.182Z,4.13
2018-08-13T21:05:23.577Z,4.53
2018-08-13T21:07:52.038Z,4.37
2018-08-13T21:10:21.925Z,4.77
2018-08-13T21:12:50.773Z,3.87
2018-08-13T21:15:19.188Z,4.00
2018-08-13T21:17:47.792Z,3.20
2018-08-13T21:20:20.408Z,3.23
2018-08-13T21:22:48.916Z,3.10
2018-08-13T21:25:17.384Z,2.33
2018-08-13T21:27:46.146Z,2.80
2018-08-13T21:30:14.548Z,2.57
2018-08-13T21:32:43.590Z,2.70
2018-08-13T21:35:15.785Z,2.60
2018-08-13T21:37:44.578Z,2.60
2018-08-13T21:40:13.012Z,2.70
2018-08-13T21:42:41.516Z,3.00
2018-08-13T21:45:10.798Z,2.73
2018-08-13T21:47:39.529Z,3.07
2018-08-13T21:50:10.372Z,3.20
2018-08-13T21:52:38.852Z,3.10
2018-08-13T21:55:08.169Z,3.30
2018-08-13T21:57:36.635Z,3.27
2018-08-13T22:00:08.849Z,3.23
2018-08-13T22:02:37.844Z,4.00
2018-08-13T22:05:06.275Z,3.50
2018-08-13T22:07:34.741Z,3.47
2018-08-13T22:10:03.395Z,3.80
2018-08-13T22:12:31.771Z,3.60
2018-08-13T22:15:00.204Z,3.93
2018-08-13T22:17:28.712Z,3.67
2018-08-13T22:19:57.161Z,4.37
2018-08-13T22:22:25.616Z,4.53
2018-08-13T22:25:02.025Z,4.30
2018-08-13T22:27:30.498Z,4.10
2018-08-13T22:29:59.111Z,4.30
2018-08-13T22:32:27.591Z,4.87
2018-08-13T22:34:55.968Z,4.70
2018-08-13T22:37:24.870Z,4.33
2018-08-13T22:39:53.408Z,4.93
2018-08-13T22:42:21.811Z,4.67
2018-08-13T22:44:50.188Z,5.30
2018-08-13T22:47:18.630Z,4.87
2018-08-13T22:49:47.081Z,5.13
2018-08-13T22:52:16.064Z,5.57
2018-08-13T22:54:44.678Z,5.43
2018-08-13T22:57:13.057Z,4.87
2018-08-13T22:59:41.609Z,5.40
2018-08-13T23:02:09.996Z,4.80
2018-08-13T23:04:38.391Z,4.80
2018-08-13T23:07:07.339Z,6.17
2018-08-13T23:09:35.779Z,5.03
2018-08-13T23:12:07.785Z,5.43
2018-08-13T23:14:36.592Z,5.23
2018-08-13T23:17:05.060Z,5.83
2018-08-13T23:19:33.622Z,5.80
2018-08-13T23:22:02.024Z,5.90
2018-08-13T23:24:30.680Z,7.43
2018-08-13T23:26:59.003Z,7.43
2018-08-13T23:29:27.390Z,7.10
2018-08-13T23:31:55.846Z,7.63
2018-08-13T23:34:24.241Z,7.23
2018-08-13T23:36:53.000Z,7.83
2018-08-13T23:39:21.414Z,7.17
2018-08-13T23:41:49.805Z,7.37
2018-08-13T23:44:18.319Z,7.50
2018-08-13T23:46:46.741Z,8.30
2018-08-13T23:49:15.155Z,7.80
2018-08-13T23:51:43.575Z,7.33
2018-08-13T23:54:12.007Z,7.93
2018-08-13T23:56:40.407Z,7.80
2018-08-13T23:59:08.741Z,8.63
